Time;durP1;ratioP1;P1;durP2;ratioP2;P2;SDS_P1;SDS_P2;PMS_P1;PMS_P2;Temp;Humidity;BMP_temperature;BMP_pressure;BME280_temperature;BME280_humidity;BME280_pressure;Samples;Min_cycle;Max_cycle;Signal;HPM_P1;HPM_P2
2023/03/13 00:01:14;;;;;;;19.80;6.73;;;10.50;87.80;;;13.18;60.14;100178.53;5113447;28;20231;-56
2023/03/13 00:03:41;;;;;;;21.73;7.67;;;10.50;87.70;;;13.18;60.38;100171.44;5113882;28;20214;-57
2023/03/13 00:06:09;;;;;;;24.57;8.10;;;10.50;87.80;;;13.11;60.56;100164.53;5114559;28;20258;-54
2023/03/13 00:08:37;;;;;;;20.27;6.97;;;10.50;87.90;;;13.14;60.41;100158.84;5113588;28;20187;-58
2023/03/13 00:11:06;;;;;;;23.53;7.00;;;10.50;87.80;;;13.19;60.43;100151.09;5113374;28;20231;-59
2023/03/13 00:13:34;;;;;;;17.93;6.70;;;10.50;87.80;;;13.22;60.37;100148.84;5113749;28;20556;-56
2023/03/13 00:16:03;;;;;;;21.77;7.83;;;10.50;87.70;;;13.22;60.32;100148.84;5114068;28;20204;-56
2023/03/13 00:18:30;;;;;;;27.30;8.00;;;10.60;87.80;;;13.27;60.19;100148.22;5114229;28;20517;-55
2023/03/13 00:20:58;;;;;;;22.57;7.30;;;10.60;87.80;;;13.27;60.23;100146.41;5113673;28;20188;-54
2023/03/13 00:23:28;;;;;;;30.30;7.43;;;10.60;87.70;;;13.29;59.98;100141.72;5114835;28;20207;-56
2023/03/13 00:25:57;;;;;;;23.17;8.03;;;10.60;87.80;;;13.26;60.29;100134.22;5121054;28;20195;-53
2023/03/13 00:28:24;;;;;;;23.37;7.00;;;10.60;87.80;;;13.25;60.39;100127.31;5120787;28;20198;-53
2023/03/13 00:30:59;;;;;;;18.40;6.37;;;10.60;87.80;;;13.21;60.33;100128.75;5115468;27;20199;-55
2023/03/13 00:33:26;;;;;;;22.33;6.97;;;10.60;87.70;;;13.23;60.41;100115.31;5100335;28;20215;-56
2023/03/13 00:35:58;;;;;;;18.00;7.03;;;10.60;87.60;;;13.25;60.31;100116.72;5100668;28;20718;-53
2023/03/13 00:38:26;;;;;;;17.20;7.23;;;10.60;87.60;;;13.21;60.34;100112.88;5100434;28;20264;-54
2023/03/13 00:41:00;;;;;;;23.87;7.90;;;10.60;88.30;;;13.23;60.37;100115.31;5105783;28;20194;-53
2023/03/13 00:43:28;;;;;;;18.50;7.17;;;10.60;87.60;;;13.21;60.42;100107.59;5120289;27;20667;-55
2023/03/13 00:45:55;;;;;;;19.03;6.30;;;10.60;87.60;;;13.21;60.44;100112.88;5120896;28;20210;-55
2023/03/13 00:48:23;;;;;;;21.23;7.13;;;10.60;87.60;;;13.22;60.40;100106.56;5120659;27;20191;-56
2023/03/13 00:50:50;;;;;;;20.17;7.00;;;10.60;87.60;;;13.18;60.36;100102.72;5115670;27;20336;-54
2023/03/13 00:53:17;;;;;;;21.20;6.33;;;10.60;87.80;;;13.18;60.53;100096.63;5099545;28;20334;-56
2023/03/13 00:55:52;;;;;;;23.30;7.87;;;10.60;87.80;;;13.17;60.73;100092.38;5100353;28;20199;-55
2023/03/13 00:58:22;;;;;;;26.60;7.03;;;10.60;87.80;;;13.15;60.31;100087.28;5112364;27;20564;-54
2023/03/13 01:00:50;;;;;;;19.60;6.87;;;10.60;87.80;;;13.15;60.55;100091.75;5115576;28;20192;-56
2023/03/13 01:03:18;;;;;;;18.73;7.00;;;10.60;87.80;;;13.10;60.71;100084.44;5099412;28;20289;-56
2023/03/13 01:05:55;;;;;;;23.80;6.97;;;10.60;87.80;;;13.11;60.79;100075.50;5100228;28;20230;-57
2023/03/13 01:08:23;;;;;;;20.37;7.43;;;10.60;87.90;;;13.10;60.91;100076.50;5099367;28;20675;-55
2023/03/13 01:10:50;;;;;;;22.90;7.00;;;10.60;88.00;;;13.02;61.25;100067.97;5104075;28;20589;-57
2023/03/13 01:13:17;;;;;;;27.73;6.97;;;10.60;88.00;;;13.04;61.40;100068.56;5119792;27;20223;-56
2023/03/13 01:15:45;;;;;;;20.37;6.23;;;10.60;87.90;;;13.12;61.15;100060.47;5120404;28;20200;-54
2023/03/13 01:18:14;;;;;;;18.93;6.53;;;10.60;87.90;;;13.17;60.84;100042.16;5121030;27;20244;-55
2023/03/13 01:20:41;;;;;;;22.27;6.30;;;10.60;87.80;;;13.20;60.87;100053.13;5119748;27;20195;-57
2023/03/13 01:23:08;;;;;;;23.20;6.97;;;10.60;87.80;;;13.18;60.83;100044.59;5119561;27;20208;-55
2023/03/13 01:25:36;;;;;;;18.77;6.33;;;10.70;87.90;;;13.18;61.02;100023.44;5120139;27;20199;-56
2023/03/13 01:28:03;;;;;;;19.00;6.13;;;10.70;87.90;;;13.16;61.00;100020.22;5118716;27;20203;-53
2023/03/13 01:30:30;;;;;;;16.47;5.50;;;10.70;88.00;;;13.23;60.97;100014.88;5118775;27;20520;-53
2023/03/13 01:32:59;;;;;;;22.00;5.53;;;10.70;87.90;;;13.24;61.08;100006.75;5098175;28;20588;-53
2023/03/13 01:35:26;;;;;;;17.97;5.77;;;10.70;88.00;;;13.26;61.13;99999.44;5096184;28;20537;-55
2023/03/13 01:37:53;;;;;;;20.17;6.20;;;10.70;88.10;;;13.23;61.07;99999.84;5096542;28;20200;-55
2023/03/13 01:40:19;;;;;;;24.77;6.17;;;10.70;88.20;;;13.25;61.34;99987.22;5098998;28;20192;-55
2023/03/13 01:42:52;;;;;;;19.27;5.47;;;10.70;88.20;;;13.25;61.08;99981.94;5096035;28;20235;-56
2023/03/13 01:46:12;;;;;;;20.23;6.20;;;10.70;88.30;;;13.08;61.78;99974.69;5096252;28;20192;-55
2023/03/13 01:48:50;;;;;;;21.73;6.47;;;10.70;88.60;;;13.11;61.95;99963.72;5096299;28;20192;-56
2023/03/13 01:51:22;;;;;;;18.03;6.07;;;10.70;88.60;;;13.07;62.22;99955.41;5102965;28;20188;-56
2023/03/13 01:53:58;;;;;;;21.87;6.47;;;10.70;88.90;;;13.11;62.01;99945.22;5116306;28;20211;-55
2023/03/13 01:56:35;;;;;;;20.13;5.90;;;10.70;88.80;;;13.14;61.79;99937.69;5116801;28;20191;-55
2023/03/13 01:59:07;;;;;;;16.77;5.63;;;10.70;88.70;;;13.12;62.10;99929.16;5115424;28;20183;-56
2023/03/13 02:01:34;;;;;;;26.70;6.03;;;10.70;88.90;;;13.12;62.04;99923.88;5106714;28;20185;-54
2023/03/13 02:04:04;;;;;;;23.97;7.43;;;10.70;89.10;;;13.12;62.19;99920.44;5095496;28;20240;-56
2023/03/13 02:06:40;;;;;;;22.10;5.67;;;10.70;89.10;;;13.10;62.06;99910.06;5096180;28;20724;-52
2023/03/13 02:09:12;;;;;;;27.53;6.67;;;10.70;89.20;;;13.05;62.37;99901.91;5095367;28;20176;-54
2023/03/13 02:11:49;;;;;;;15.33;5.43;;;10.70;89.30;;;13.07;62.29;99899.94;5105842;28;20191;-52
2023/03/13 02:14:20;;;;;;;19.10;6.37;;;10.70;89.30;;;13.08;62.37;99896.25;5115298;28;20613;-55
2023/03/13 02:16:50;;;;;;;18.57;6.00;;;10.70;89.30;;;13.11;62.43;99895.03;5115894;28;20203;-53
2023/03/13 02:19:31;;;;;;;20.23;6.10;;;10.70;89.20;;;13.12;62.23;99886.88;5115453;27;20244;-57
2023/03/13 02:22:11;;;;;;;24.33;6.60;;;10.70;89.20;;;13.15;62.14;99875.88;5114732;28;20248;-55
2023/03/13 02:24:50;;;;;;;20.27;5.67;;;10.70;89.30;;;13.09;62.40;99866.19;5115457;28;20536;-56
2023/03/13 02:27:18;;;;;;;19.20;6.17;;;10.70;89.40;;;13.08;62.50;99866.38;5115978;28;20253;-56
2023/03/13 02:29:45;;;;;;;21.10;5.40;;;10.70;89.50;;;13.08;62.95;99861.09;5115679;28;20195;-54
2023/03/13 02:32:13;;;;;;;19.53;6.70;;;10.70;89.50;;;13.01;62.96;99845.25;5101003;28;20644;-54
2023/03/13 02:34:44;;;;;;;19.43;6.90;;;10.70;89.60;;;13.06;62.84;99842.81;5095226;27;20285;-56
2023/03/13 02:37:14;;;;;;;21.50;6.33;;;10.70;89.70;;;13.08;62.72;99829.38;5095954;28;20176;-56
2023/03/13 02:39:45;;;;;;;20.43;6.20;;;10.70;89.70;;;13.07;62.95;99825.16;5095509;28;20629;-55
2023/03/13 02:42:15;;;;;;;19.83;6.07;;;10.70;89.90;;;13.10;62.74;99809.66;5109045;28;20180;-56
2023/03/13 02:44:46;;;;;;;21.60;6.83;;;10.70;89.70;;;13.08;62.89;99810.91;5115497;28;20207;-56
2023/03/13 02:47:18;;;;;;;19.47;5.50;;;10.70;90.00;;;13.04;62.97;99804.41;5114659;28;20675;-54
2023/03/13 02:49:45;;;;;;;20.27;5.20;;;10.70;90.00;;;13.08;63.13;99795.88;5114873;28;20260;-52
2023/03/13 02:52:20;;;;;;;21.43;6.17;;;10.70;90.00;;;13.06;63.31;99797.91;5101316;28;20205;-55
2023/03/13 02:54:52;;;;;;;17.47;5.47;;;10.70;90.10;;;13.05;63.21;99784.91;5094834;28;20208;-56
2023/03/13 02:57:19;;;;;;;18.87;5.93;;;10.70;90.10;;;13.00;63.58;99782.09;5094868;28;20176;-53
2023/03/13 02:59:47;;;;;;;20.80;6.60;;;10.60;90.20;;;12.98;63.81;99773.56;5094622;28;20192;-56
2023/03/13 03:02:14;;;;;;;22.43;5.93;;;10.60;90.30;;;12.96;64.02;99779.03;5108084;28;20195;-55
2023/03/13 03:04:41;;;;;;;17.13;5.23;;;10.60;90.40;;;13.01;63.74;99766.00;5114919;28;20207;-55
2023/03/13 03:07:08;;;;;;;17.93;4.97;;;10.70;90.40;;;12.96;64.24;99759.75;5115254;28;20297;-53
2023/03/13 03:09:34;;;;;;;18.00;6.10;;;10.60;90.50;;;12.90;64.48;99750.88;5114360;28;20188;-54
2023/03/13 03:12:01;;;;;;;18.10;5.67;;;10.60;90.60;;;12.95;64.48;99755.50;5102622;28;20200;-54
2023/03/13 03:14:28;;;;;;;16.00;5.67;;;10.60;90.60;;;12.96;64.35;99747.34;5110402;28;20600;-56
2023/03/13 03:16:57;;;;;;;18.10;5.27;;;10.60;90.80;;;12.97;64.33;99734.97;5114590;27;20772;-54
2023/03/13 03:19:23;;;;;;;19.87;5.97;;;10.60;90.80;;;12.95;64.50;99737.81;5114745;28;20188;-55
2023/03/13 03:21:50;;;;;;;19.07;5.50;;;10.60;90.90;;;12.88;64.89;99726.50;5113965;28;20196;-56
2023/03/13 03:24:17;;;;;;;17.57;5.10;;;10.50;91.00;;;12.87;64.93;99716.94;5114223;28;20207;-57
2023/03/13 03:26:44;;;;;;;14.23;5.23;;;10.60;91.00;;;12.91;64.91;99715.50;5114670;28;20191;-56
2023/03/13 03:29:11;;;;;;;20.80;5.60;;;10.60;91.00;;;12.90;65.11;99709.41;5114645;28;20196;-56
2023/03/13 03:31:38;;;;;;;16.17;5.47;;;10.60;91.10;;;12.89;65.10;99713.06;5109113;28;20246;-54
2023/03/13 03:34:07;;;;;;;16.47;5.47;;;10.60;91.20;;;12.93;65.10;99700.25;5093929;27;20793;-55
2023/03/13 03:36:34;;;;;;;14.90;5.07;;;10.50;91.10;;;12.97;65.32;99698.78;5094237;28;20514;-54
2023/03/13 03:39:01;;;;;;;21.63;5.70;;;10.60;91.20;;;12.92;65.30;99688.06;5094077;28;20193;-57
2023/03/13 03:41:28;;;;;;;16.07;5.50;;;10.50;91.30;;;12.86;65.60;99675.72;5097496;28;20677;-56
2023/03/13 03:43:55;;;;;;;17.00;5.37;;;10.60;91.50;;;12.82;65.95;99675.34;5114171;28;20206;-56
2023/03/13 03:46:23;;;;;;;17.60;5.70;;;10.50;91.60;;;12.77;66.59;99666.44;5114365;28;20204;-55
2023/03/13 03:48:50;;;;;;;16.23;5.40;;;10.50;91.70;;;12.72;66.84;99663.63;5114565;28;20187;-55
2023/03/13 03:51:18;;;;;;;17.23;5.37;;;10.50;91.90;;;12.67;66.98;99647.66;5111563;28;20199;-55
2023/03/13 03:53:45;;;;;;;18.70;6.13;;;10.50;92.00;;;12.63;67.59;99643.81;5093775;28;20209;-57
2023/03/13 03:56:12;;;;;;;20.10;5.80;;;10.40;92.20;;;12.59;67.64;99632.06;5093755;28;20207;-54
2023/03/13 03:58:39;;;;;;;18.73;5.10;;;10.40;92.30;;;12.57;68.19;99628.84;5092888;28;20196;-54
2023/03/13 04:01:06;;;;;;;14.93;4.83;;;10.40;92.40;;;12.55;68.27;99615.06;5093356;28;20199;-56
2023/03/13 04:03:33;;;;;;;15.40;5.23;;;10.40;92.70;;;12.59;68.05;99621.50;5113518;28;20204;-54
2023/03/13 04:06:01;;;;;;;17.23;5.20;;;10.40;92.70;;;12.48;68.69;99604.53;5113792;28;20226;-57
2023/03/13 04:08:29;;;;;;;17.07;5.00;;;10.30;92.90;;;12.49;68.79;99605.34;5113277;28;20192;-56
2023/03/13 04:10:56;;;;;;;19.93;5.47;;;10.30;93.00;;;12.54;68.90;99611.59;5113883;28;20188;-56
2023/03/13 04:13:23;;;;;;;17.27;5.40;;;10.30;92.90;;;12.50;69.29;99607.78;5094500;28;20211;-55
2023/03/13 04:15:49;;;;;;;19.90;5.90;;;10.30;93.10;;;12.55;68.82;99593.94;5096585;28;20204;-55
2023/03/13 04:18:16;;;;;;;19.10;5.40;;;10.30;93.10;;;12.56;68.82;99584.97;5114028;28;20195;-55
2023/03/13 04:20:44;;;;;;;17.70;4.43;;;10.30;93.20;;;12.57;68.91;99582.16;5113771;28;20199;-56
2023/03/13 04:23:11;;;;;;;14.50;4.80;;;10.30;93.20;;;12.57;68.67;99570.78;5112965;28;20207;-55
2023/03/13 04:25:39;;;;;;;20.73;5.33;;;10.30;93.30;;;12.56;69.01;99569.97;5113838;28;20191;-54
2023/03/13 04:28:06;;;;;;;12.47;5.03;;;10.30;93.30;;;12.56;69.30;99569.16;5113565;28;20236;-53
2023/03/13 04:30:33;;;;;;;16.27;5.13;;;10.30;93.30;;;12.54;69.37;99552.72;5113911;28;20242;-55
2023/03/13 04:33:00;;;;;;;14.77;5.97;;;10.40;93.40;;;12.48;69.54;99545.69;5098100;28;20215;-55
2023/03/13 04:35:27;;;;;;;13.63;5.23;;;10.30;93.50;;;12.49;69.62;99526.97;5093645;28;20201;-57
2023/03/13 04:37:54;;;;;;;16.33;5.23;;;10.40;93.60;;;12.39;70.22;99526.66;5093262;28;20188;-54
2023/03/13 04:40:20;;;;;;;15.93;4.90;;;10.40;93.60;;;12.40;70.42;99516.91;5093639;28;20720;-57
2023/03/13 04:42:49;;;;;;;15.60;5.13;;;10.40;93.80;;;12.55;69.77;99514.75;5105879;28;20227;-55
2023/03/13 04:45:16;;;;;;;14.57;5.30;;;10.40;93.70;;;12.58;69.81;99509.03;5113586;28;20188;-54
2023/03/13 04:47:44;;;;;;;14.70;5.37;;;10.40;93.80;;;12.64;70.00;99503.69;5113559;28;20211;-57
2023/03/13 04:50:12;;;;;;;12.60;5.00;;;10.40;93.80;;;12.78;69.28;99509.66;5113640;28;20191;-55
2023/03/13 04:52:39;;;;;;;14.70;5.13;;;10.50;93.70;;;12.77;69.63;99508.03;5101324;28;20211;-56
2023/03/13 04:55:07;;;;;;;9.73;4.80;;;10.50;93.80;;;12.72;69.81;99506.03;5092998;28;20341;-55
2023/03/13 04:57:33;;;;;;;16.80;4.90;;;10.50;94.00;;;12.80;69.86;99504.94;5093038;28;20621;-55
2023/03/13 05:00:05;;;;;;;8.93;4.40;;;10.50;93.80;;;12.80;69.93;99497.03;5093100;28;20234;-54
2023/03/13 05:02:32;;;;;;;14.43;4.87;;;10.50;93.90;;;12.84;69.60;99490.28;5102924;28;20188;-55
2023/03/13 05:04:59;;;;;;;10.63;4.30;;;10.50;93.90;;;12.88;69.48;99484.31;5113918;28;20267;-57
2023/03/13 05:07:26;;;;;;;12.53;4.47;;;10.50;93.90;;;12.93;69.60;99487.13;5113317;28;20711;-57
2023/03/13 05:09:52;;;;;;;14.07;4.50;;;10.60;94.10;;;12.86;70.19;99477.66;5113078;28;20187;-56
2023/03/13 05:12:19;;;;;;;8.47;4.13;;;10.60;94.30;;;12.96;69.83;99474.50;5107857;28;20184;-56
2023/03/13 05:14:46;;;;;;;9.17;3.90;;;10.60;94.20;;;12.86;70.41;99472.38;5096606;28;20216;-55
2023/03/13 05:17:16;;;;;;;7.53;3.30;;;10.60;94.40;;;12.97;69.98;99465.56;5111164;28;20203;-57
2023/03/13 05:19:43;;;;;;;8.93;4.33;;;10.70;94.30;;;12.98;70.30;99462.69;5117143;28;20183;-56
2023/03/13 05:22:10;;;;;;;12.03;3.93;;;10.70;94.40;;;12.99;70.45;99459.03;5116185;28;20654;-57
2023/03/13 05:24:37;;;;;;;7.87;3.93;;;10.70;94.60;;;13.02;70.35;99448.03;5116790;28;20289;-54
2023/03/13 05:27:07;;;;;;;7.73;4.00;;;10.70;94.60;;;13.01;70.70;99451.69;5117172;28;20275;-55
2023/03/13 05:29:34;;;;;;;7.93;3.60;;;10.70;94.70;;;12.94;70.95;99445.69;5117290;28;20192;-57
2023/03/13 05:32:01;;;;;;;8.87;3.93;;;10.70;94.80;;;13.01;71.19;99438.47;5111508;28;20185;-57
2023/03/13 05:34:29;;;;;;;5.47;4.10;;;10.80;94.90;;;13.08;70.85;99431.31;5096261;28;20319;-55
2023/03/13 05:36:56;;;;;;;7.17;3.53;;;10.80;94.80;;;13.05;71.29;99418.50;5096896;28;20196;-53
2023/03/13 05:39:23;;;;;;;4.73;3.00;;;10.80;94.90;;;13.16;71.05;99427.56;5107248;28;20196;-54
2023/03/13 05:41:50;;;;;;;6.47;3.30;;;10.90;94.90;;;13.21;70.96;99411.84;5112397;28;20200;-56
2023/03/13 05:44:17;;;;;;;4.43;2.73;;;10.90;94.90;;;13.30;70.31;99424.53;5096031;28;20204;-55
2023/03/13 05:46:44;;;;;;;5.50;3.00;;;10.90;94.90;;;13.33;70.73;99428.56;5096144;28;20195;-55
2023/03/13 05:49:11;;;;;;;5.33;3.17;;;11.00;95.00;;;13.39;70.74;99407.31;5096788;28;20673;-56
2023/03/13 05:51:40;;;;;;;4.10;3.07;;;11.00;95.00;;;13.39;70.93;99404.66;5098811;28;20561;-55
2023/03/13 05:54:06;;;;;;;4.53;3.13;;;11.10;95.10;;;13.32;71.24;99398.66;5116381;28;20218;-54
2023/03/13 05:56:33;;;;;;;5.17;3.13;;;11.10;95.20;;;13.40;71.38;99402.84;5116422;28;20634;-54
2023/03/13 05:59:00;;;;;;;6.57;4.00;;;11.10;95.10;;;13.36;71.73;99397.19;5116313;28;20558;-53
2023/03/13 06:01:27;;;;;;;4.13;3.10;;;11.20;95.30;;;13.43;71.37;99387.31;5115403;28;20188;-56
2023/03/13 06:03:54;;;;;;;4.13;3.30;;;11.20;95.20;;;13.55;71.18;99384.69;5095085;28;20645;-54
2023/03/13 06:06:21;;;;;;;6.53;3.30;;;11.30;95.10;;;13.63;70.90;99370.34;5095943;28;20196;-55
2023/03/13 06:08:51;;;;;;;3.60;3.30;;;11.30;95.20;;;13.75;70.69;99364.03;5095162;28;20210;-57
2023/03/13 06:11:18;;;;;;;4.17;3.70;;;11.40;95.10;;;13.80;70.72;99369.44;5096214;28;20204;-56
2023/03/13 06:13:45;;;;;;;3.60;3.30;;;11.40;95.10;;;13.90;70.39;99360.94;5115232;28;20298;-54
2023/03/13 06:16:12;;;;;;;5.53;4.00;;;11.50;95.00;;;13.91;70.30;99351.97;5115711;28;20639;-57
2023/03/13 06:18:39;;;;;;;3.77;3.47;;;11.50;95.10;;;13.91;70.46;99351.97;5115818;28;20192;-56
2023/03/13 06:21:06;;;;;;;4.03;3.50;;;11.60;95.00;;;13.95;70.29;99347.84;5115683;28;20652;-57
2023/03/13 06:23:34;;;;;;;4.30;3.23;;;11.60;94.90;;;14.07;69.98;99351.28;5114555;28;20270;-55
2023/03/13 06:26:02;;;;;;;5.10;4.43;;;11.70;94.90;;;14.15;69.91;99343.78;5115473;28;20192;-55
2023/03/13 06:28:29;;;;;;;4.33;3.80;;;11.70;94.90;;;14.17;69.78;99341.72;5115427;28;20191;-56
2023/03/13 06:31:00;;;;;;;5.10;3.70;;;11.70;94.90;;;14.15;69.94;99343.78;5115468;28;20200;-55
2023/03/13 06:33:28;;;;;;;4.17;3.57;;;11.80;94.90;;;14.21;69.90;99347.38;5097511;28;20220;-55
2023/03/13 06:35:55;;;;;;;3.93;3.57;;;11.80;94.80;;;14.25;70.13;99335.28;5107890;28;20220;-58
2023/03/13 06:38:23;;;;;;;4.40;4.00;;;11.80;95.20;;;14.23;70.12;99337.34;5115609;28;20208;-55
2023/03/13 06:40:50;;;;;;;5.07;4.10;;;11.90;94.90;;;14.12;70.40;99327.59;5116012;28;20195;-55
2023/03/13 06:43:20;;;;;;;4.70;4.33;;;11.80;95.00;;;14.15;70.91;99322.63;5099441;28;20216;-54
2023/03/13 06:45:47;;;;;;;5.10;4.60;;;11.90;95.00;;;14.29;70.49;99328.47;5095504;28;20307;-57
2023/03/13 06:48:14;;;;;;;5.10;4.37;;;12.00;95.00;;;14.40;70.01;99324.22;5094961;28;20272;-54
2023/03/13 06:50:41;;;;;;;5.17;4.67;;;12.00;95.00;;;14.47;70.22;99319.59;5094699;28;20214;-58
2023/03/13 06:53:15;;;;;;;6.00;5.40;;;12.00;95.00;;;14.45;70.09;99317.19;5107423;28;20578;-57
2023/03/13 06:55:43;;;;;;;5.37;4.80;;;12.10;95.10;;;14.49;70.33;99318.34;5112064;27;20255;-55
2023/03/13 06:58:10;;;;;;;5.90;5.33;;;12.10;95.10;;;14.61;70.04;99316.47;5098896;28;20180;-56
2023/03/13 07:01:06;;;;;;;5.97;5.17;;;12.20;95.00;;;14.63;69.85;99306.44;5098530;28;20284;-57
2023/03/13 07:03:34;;;;;;;6.27;5.63;;;12.20;95.10;;;14.55;70.42;99311.28;5110751;28;20237;-57
2023/03/13 07:06:03;;;;;;;5.03;4.63;;;12.30;95.20;;;14.70;70.34;99304.44;5109690;28;20238;-56
2023/03/13 07:08:31;;;;;;;6.07;5.47;;;12.40;95.10;;;14.83;69.98;99306.78;5114972;28;20202;-57
2023/03/13 07:11:02;;;;;;;5.87;5.37;;;12.40;95.10;;;14.90;69.60;99307.44;5102733;28;20203;-57
2023/03/13 07:13:29;;;;;;;5.97;5.43;;;12.50;95.10;;;15.02;69.39;99311.91;5103472;28;20223;-58
2023/03/13 07:16:03;;;;;;;7.57;5.90;;;12.50;95.10;;;15.13;69.36;99311.03;5109697;28;20212;-55
2023/03/13 07:18:31;;;;;;;6.00;5.43;;;12.60;95.10;;;15.17;68.83;99305.00;5113614;28;20234;-57
2023/03/13 07:21:05;;;;;;;6.10;5.50;;;12.60;94.90;;;15.28;68.82;99306.00;5110638;28;20187;-56
2023/03/13 07:23:35;;;;;;;5.57;5.10;;;12.70;94.90;;;15.31;68.82;99300.19;5102550;28;20246;-55
2023/03/13 07:26:04;;;;;;;6.50;5.47;;;12.80;94.90;;;15.30;68.83;99311.84;5107422;28;20279;-53
2023/03/13 07:28:32;;;;;;;10.80;6.03;;;12.80;94.90;;;15.35;68.90;99311.94;5095558;28;20751;-57
2023/03/13 07:31:09;;;;;;;5.33;4.73;;;12.90;94.80;;;15.43;68.91;99312.34;5099621;28;20294;-57
2023/03/13 07:33:36;;;;;;;4.60;4.20;;;12.90;94.80;;;15.53;68.56;99304.56;5113256;27;20265;-58
2023/03/13 07:36:05;;;;;;;5.60;5.00;;;13.00;94.80;;;15.64;68.72;99308.22;5099530;28;20304;-57
2023/03/13 07:38:32;;;;;;;5.93;4.77;;;13.00;94.70;;;15.73;68.10;99309.41;5107770;28;20199;-57
2023/03/13 07:40:59;;;;;;;5.50;4.70;;;13.00;94.80;;;15.75;68.12;99303.84;5103642;28;20200;-57
2023/03/13 07:43:28;;;;;;;5.37;4.60;;;13.10;94.80;;;15.82;68.17;99318.53;5093340;28;20689;-56
2023/03/13 07:45:58;;;;;;;5.10;4.57;;;13.10;94.70;;;15.77;68.37;99297.25;5094826;28;20297;-58
2023/03/13 07:48:30;;;;;;;6.63;4.60;;;13.20;94.80;;;15.83;68.21;99293.59;5094154;28;20280;-55
2023/03/13 07:50:59;;;;;;;5.93;4.17;;;13.30;94.70;;;15.88;68.06;99293.69;5096057;28;20192;-55
2023/03/13 07:53:28;;;;;;;3.90;3.60;;;13.30;94.60;;;16.00;68.07;99309.50;5096211;27;20228;-57
2023/03/13 07:55:58;;;;;;;4.27;3.87;;;13.40;94.60;;;16.07;67.53;99313.59;5094355;28;20228;-56
2023/03/13 07:58:30;;;;;;;4.43;4.03;;;13.50;94.60;;;16.04;67.98;99311.44;5101393;28;20602;-56
2023/03/13 08:00:58;;;;;;;4.50;4.10;;;13.50;94.40;;;16.10;67.54;99306.97;5105142;28;20189;-54
2023/03/13 08:03:27;;;;;;;4.50;3.97;;;13.60;94.40;;;16.19;67.39;99319.59;5096926;28;20219;-55
2023/03/13 08:05:59;;;;;;;4.77;4.20;;;13.60;94.30;;;16.12;67.60;99300.38;5098154;28;20205;-57
2023/03/13 08:08:27;;;;;;;5.63;4.27;;;13.60;94.20;;;16.14;67.58;99300.94;5094044;28;20204;-57
2023/03/13 08:10:59;;;;;;;4.97;4.40;;;13.70;94.10;;;16.17;66.96;99284.53;5099927;28;20215;-58
2023/03/13 08:13:27;;;;;;;4.57;4.10;;;13.80;93.90;;;16.24;66.96;99285.13;5097391;28;20258;-55
2023/03/13 08:16:02;;;;;;;4.43;3.70;;;13.80;93.80;;;16.40;66.83;99277.38;5111131;28;20223;-54
2023/03/13 08:18:34;;;;;;;6.07;4.00;;;13.90;93.80;;;16.54;66.66;99278.63;5113934;28;20198;-58
2023/03/13 08:21:04;;;;;;;5.97;4.47;;;14.00;93.60;;;16.62;66.37;99283.47;5098031;28;20215;-57
2023/03/13 08:23:32;;;;;;;5.33;4.30;;;14.10;93.40;;;16.71;66.00;99271.38;5093062;28;20286;-56
2023/03/13 08:26:05;;;;;;;4.40;4.10;;;14.10;93.30;;;16.74;65.29;99273.50;5092961;28;20197;-57
2023/03/13 08:28:33;;;;;;;6.27;3.53;;;14.20;93.20;;;16.75;65.42;99267.16;5106720;28;20286;-57
2023/03/13 08:31:07;;;;;;;7.17;4.27;;;14.20;93.00;;;16.79;65.26;99271.72;5101007;28;20196;-55
2023/03/13 08:33:36;;;;;;;4.57;3.80;;;14.20;93.00;;;16.85;65.08;99272.56;5094984;28;20216;-57
2023/03/13 08:36:16;;;;;;;5.67;3.97;;;14.20;93.00;;;16.74;64.94;99278.81;5094616;28;20251;-55
2023/03/13 08:38:44;;;;;;;5.00;4.13;;;14.20;92.90;;;16.78;65.26;99286.03;5093740;28;20180;-58
2023/03/13 08:41:14;;;;;;;6.30;4.37;;;14.30;92.90;;;16.76;65.02;99268.72;5106587;28;20195;-56
2023/03/13 08:43:42;;;;;;;7.43;4.53;;;14.30;92.80;;;16.79;65.07;99265.59;5114206;28;20216;-56
2023/03/13 08:46:09;;;;;;;8.07;4.93;;;14.30;92.70;;;16.77;64.54;99283.63;5117982;28;20183;-57
2023/03/13 08:48:38;;;;;;;6.60;4.53;;;14.30;92.60;;;16.68;65.00;99280.63;5118139;28;20187;-56
2023/03/13 08:51:08;;;;;;;6.77;4.10;;;14.30;92.50;;;16.76;65.03;99279.38;5116354;28;20214;-54
2023/03/13 08:53:37;;;;;;;4.87;4.33;;;14.30;92.50;;;16.79;64.76;99277.03;5116825;28;20216;-56
2023/03/13 08:56:06;;;;;;;9.17;4.53;;;14.30;92.30;;;16.74;64.74;99270.84;5116955;28;20222;-58
2023/03/13 08:58:33;;;;;;;4.50;3.80;;;14.30;92.20;;;16.79;64.88;99286.84;5117011;28;20183;-57
2023/03/13 09:01:02;;;;;;;4.97;4.00;;;14.40;92.20;;;16.89;64.26;99276.31;5104954;28;20523;-58
2023/03/13 09:03:29;;;;;;;6.83;4.37;;;14.40;92.20;;;16.84;64.25;99281.59;5097191;28;20213;-58
2023/03/13 09:05:59;;;;;;;7.37;4.27;;;14.50;92.10;;;16.92;64.34;99286.47;5098246;28;20223;-57
2023/03/13 09:08:28;;;;;;;5.00;3.67;;;14.50;92.00;;;17.01;64.60;99282.28;5097750;28;20231;-56
2023/03/13 09:10:56;;;;;;;5.03;3.60;;;14.50;92.10;;;17.08;64.10;99290.84;5107647;28;20219;-57
2023/03/13 09:13:24;;;;;;;6.73;4.10;;;14.50;92.20;;;17.11;64.07;99271.75;5116505;28;20238;-57
2023/03/13 09:15:56;;;;;;;5.97;3.90;;;14.50;92.10;;;17.14;63.80;99281.84;5117073;28;20207;-62
2023/03/13 09:18:23;;;;;;;5.80;4.53;;;14.60;92.10;;;17.12;63.98;99281.31;5116954;28;20191;-57
2023/03/13 09:20:51;;;;;;;5.20;4.00;;;14.60;92.20;;;17.24;63.82;99284.59;5116621;28;20649;-57
2023/03/13 09:23:20;;;;;;;8.43;4.67;;;14.70;92.30;;;17.28;63.67;99259.09;5115542;28;20219;-59
2023/03/13 09:25:49;;;;;;;5.17;3.60;;;14.70;92.20;;;17.34;63.67;99267.94;5117017;28;20191;-54
2023/03/13 09:28:15;;;;;;;6.87;4.87;;;14.70;92.20;;;17.30;63.82;99282.81;5116839;28;20188;-53
2023/03/13 09:30:43;;;;;;;3.97;3.53;;;14.80;92.20;;;17.36;63.69;99277.25;5117123;28;20196;-54
2023/03/13 09:33:10;;;;;;;5.93;3.57;;;14.80;92.20;;;17.40;63.69;99289.00;5099499;28;20220;-55
2023/03/13 09:35:38;;;;;;;10.10;7.30;;;14.80;92.10;;;17.39;63.33;99276.75;5096014;28;20216;-56
2023/03/13 09:38:06;;;;;;;3.97;3.53;;;14.80;92.00;;;17.40;63.34;99267.72;5095637;28;20246;-55
2023/03/13 09:40:40;;;;;;;7.70;3.87;;;14.80;92.00;;;17.40;63.25;99273.03;5095853;28;20205;-57
2023/03/13 09:43:28;;;;;;;4.93;3.17;;;14.80;92.00;;;17.42;63.33;99280.78;5094576;28;20695;-57
2023/03/13 09:46:01;;;;;;;4.37;3.33;;;14.80;92.00;;;17.45;63.10;99283.72;5096588;28;20595;-57
2023/03/13 09:48:33;;;;;;;5.57;3.53;;;14.80;92.00;;;17.49;62.86;99284.81;5095907;28;20664;-53
2023/03/13 09:51:09;;;;;;;4.33;3.23;;;14.80;91.80;;;17.60;62.99;99280.38;5096666;28;20173;-57
2023/03/13 09:53:43;;;;;;;3.67;3.33;;;14.90;91.90;;;17.71;62.15;99267.97;5095844;28;20756;-55
2023/03/13 09:56:18;;;;;;;7.20;3.43;;;14.90;91.70;;;17.88;62.82;99268.56;5095451;28;20287;-57
2023/03/13 09:58:53;;;;;;;5.77;3.03;;;15.10;91.70;;;18.15;61.43;99269.25;5095639;28;20653;-56
2023/03/13 10:01:27;;;;;;;3.97;2.60;;;15.20;91.50;;;18.29;61.25;99259.72;5097049;28;20203;-56
2023/03/13 10:04:26;;;;;;;4.90;3.33;;;15.40;91.10;;;18.43;60.21;99276.81;5116744;28;20247;-55
2023/03/13 10:06:53;;;;;;;3.20;2.80;;;15.60;90.90;;;18.66;60.53;99259.59;5117091;28;20241;-56
2023/03/13 10:09:29;;;;;;;4.40;2.50;;;15.80;90.70;;;19.48;59.72;99262.88;5115241;28;20187;-58
2023/03/13 10:12:11;;;;;;;2.97;2.17;;;16.00;91.00;;;20.30;55.64;99255.47;5110811;28;20195;-56
2023/03/13 10:14:47;;;;;;;2.60;2.07;;;16.50;90.00;;;20.68;54.87;99260.09;5095545;28;20271;-57
2023/03/13 10:17:32;;;;;;;6.03;1.97;;;17.00;87.30;;;21.19;54.07;99256.00;5110223;28;20694;-56
2023/03/13 10:20:12;;;;;;;3.40;1.93;;;17.50;85.00;;;21.50;52.03;99243.94;5115600;28;20307;-55
2023/03/13 10:22:45;;;;;;;2.97;1.83;;;17.80;83.10;;;21.49;51.48;99245.00;5116440;28;20210;-56
2023/03/13 10:25:26;;;;;;;2.57;1.60;;;18.10;81.70;;;21.25;49.86;99238.81;5115924;28;20184;-56